sensor_id;sensor_type;location;lat;lon;timestamp;pressure;altitude;pressure_sealevel;temperature;humidity
9855;BME280;4966;48.112;9.282;2023-04-19T00:00:33;95072.16;;;9.47;84.75
9855;BME280;4966;48.112;9.282;2023-04-19T00:03:00;95074.56;;;9.22;85.72
9855;BME280;4966;48.112;9.282;2023-04-19T00:05:26;95068.31;;;9.30;85.66
9855;BME280;4966;48.112;9.282;2023-04-19T00:07:52;95062.22;;;9.68;83.58
9855;BME280;4966;48.112;9.282;2023-04-19T00:10:17;95066.34;;;9.74;83.28
9855;BME280;4966;48.112;9.282;2023-04-19T00:12:43;95073.25;;;9.54;84.47
9855;BME280;4966;48.112;9.282;2023-04-19T00:15:08;95065.47;;;10.09;81.19
9855;BME280;4966;48.112;9.282;2023-04-19T00:17:34;95068.75;;;9.67;82.71
9855;BME280;4966;48.112;9.282;2023-04-19T00:19:59;95068.91;;;9.71;83.60
9855;BME280;4966;48.112;9.282;2023-04-19T00:22:24;95059.09;;;9.96;81.93
9855;BME280;4966;48.112;9.282;2023-04-19T00:24:51;95061.63;;;10.10;81.26
9855;BME280;4966;48.112;9.282;2023-04-19T00:27:16;95057.53;;;9.86;82.00
9855;BME280;4966;48.112;9.282;2023-04-19T00:29:41;95050.44;;;10.02;80.90
9855;BME280;4966;48.112;9.282;2023-04-19T00:32:07;95065.19;;;9.93;81.27
9855;BME280;4966;48.112;9.282;2023-04-19T00:34:32;95054.78;;;9.95;81.01
9855;BME280;4966;48.112;9.282;2023-04-19T00:36:58;95054.88;;;10.16;80.31
9855;BME280;4966;48.112;9.282;2023-04-19T00:39:23;95059.16;;;10.26;79.75
9855;BME280;4966;48.112;9.282;2023-04-19T00:41:49;95055.84;;;10.20;79.86
9855;BME280;4966;48.112;9.282;2023-04-19T00:44:14;95050.34;;;9.82;81.55
9855;BME280;4966;48.112;9.282;2023-04-19T00:46:40;95050.16;;;9.95;81.03
9855;BME280;4966;48.112;9.282;2023-04-19T00:49:06;95046.56;;;9.56;83.01
9855;BME280;4966;48.112;9.282;2023-04-19T00:51:32;95043.56;;;9.32;84.06
9855;BME280;4966;48.112;9.282;2023-04-19T00:53:58;95050.56;;;9.50;83.62
9855;BME280;4966;48.112;9.282;2023-04-19T00:56:25;95051.34;;;9.59;83.42
9855;BME280;4966;48.112;9.282;2023-04-19T00:58:52;95049.28;;;9.56;83.69
9855;BME280;4966;48.112;9.282;2023-04-19T01:01:18;95039.03;;;9.71;82.47
9855;BME280;4966;48.112;9.282;2023-04-19T01:03:45;95036.94;;;9.76;82.17
9855;BME280;4966;48.112;9.282;2023-04-19T01:06:11;95039.28;;;9.95;81.55
9855;BME280;4966;48.112;9.282;2023-04-19T01:08:37;95033.97;;;10.08;80.24
9855;BME280;4966;48.112;9.282;2023-04-19T01:11:03;95044.16;;;9.72;82.31
9855;BME280;4966;48.112;9.282;2023-04-19T01:13:29;95036.38;;;10.09;80.83
9855;BME280;4966;48.112;9.282;2023-04-19T01:15:54;95034.59;;;9.57;83.39
9855;BME280;4966;48.112;9.282;2023-04-19T01:18:21;95036.72;;;9.08;86.04
9855;BME280;4966;48.112;9.282;2023-04-19T01:20:48;95030.78;;;9.24;85.53
9855;BME280;4966;48.112;9.282;2023-04-19T01:23:14;95028.69;;;9.55;83.94
9855;BME280;4966;48.112;9.282;2023-04-19T01:25:39;95026.63;;;9.44;84.61
9855;BME280;4966;48.112;9.282;2023-04-19T01:28:04;95026.84;;;9.86;82.67
9855;BME280;4966;48.112;9.282;2023-04-19T01:30:30;95023.03;;;9.78;81.90
9855;BME280;4966;48.112;9.282;2023-04-19T01:32:56;95019.09;;;9.58;82.66
9855;BME280;4966;48.112;9.282;2023-04-19T01:35:21;95028.81;;;9.68;83.46
9855;BME280;4966;48.112;9.282;2023-04-19T01:37:47;95014.28;;;9.55;83.31
9855;BME280;4966;48.112;9.282;2023-04-19T01:40:12;95017.50;;;9.57;83.64
9855;BME280;4966;48.112;9.282;2023-04-19T01:42:38;95011.59;;;9.55;83.48
9855;BME280;4966;48.112;9.282;2023-04-19T01:45:04;95011.16;;;9.27;85.34
9855;BME280;4966;48.112;9.282;2023-04-19T01:47:29;95004.91;;;9.26;85.13
9855;BME280;4966;48.112;9.282;2023-04-19T01:49:54;95003.34;;;9.34;84.63
9855;BME280;4966;48.112;9.282;2023-04-19T01:52:20;94997.44;;;8.97;86.17
9855;BME280;4966;48.112;9.282;2023-04-19T01:54:45;95003.34;;;9.16;85.40
9855;BME280;4966;48.112;9.282;2023-04-19T01:57:10;94992.34;;;9.04;85.93
9855;BME280;4966;48.112;9.282;2023-04-19T01:59:36;94997.13;;;9.25;84.50
9855;BME280;4966;48.112;9.282;2023-04-19T02:02:01;94992.97;;;9.83;82.04
9855;BME280;4966;48.112;9.282;2023-04-19T02:04:27;94997.13;;;9.80;81.86
9855;BME280;4966;48.112;9.282;2023-04-19T02:06:52;94997.13;;;9.89;81.09
9855;BME280;4966;48.112;9.282;2023-04-19T02:09:17;94994.31;;;9.68;81.71
9855;BME280;4966;48.112;9.282;2023-04-19T02:11:43;94990.84;;;9.42;84.11
9855;BME280;4966;48.112;9.282;2023-04-19T02:14:08;94992.53;;;9.72;82.13
9855;BME280;4966;48.112;9.282;2023-04-19T02:16:33;94991.47;;;9.56;82.85
9855;BME280;4966;48.112;9.282;2023-04-19T02:18:59;94999.84;;;9.89;80.90
9855;BME280;4966;48.112;9.282;2023-04-19T02:21:24;94989.91;;;9.46;83.69
9855;BME280;4966;48.112;9.282;2023-04-19T02:23:50;94981.94;;;9.41;83.79
9855;BME280;4966;48.112;9.282;2023-04-19T02:26:15;94985.25;;;9.55;82.92
9855;BME280;4966;48.112;9.282;2023-04-19T02:28:40;94981.19;;;9.70;81.83
9855;BME280;4966;48.112;9.282;2023-04-19T02:31:06;94980.16;;;9.92;80.82
9855;BME280;4966;48.112;9.282;2023-04-19T02:33:32;94979.88;;;9.85;81.17
9855;BME280;4966;48.112;9.282;2023-04-19T02:35:57;94980.72;;;10.07;80.49
9855;BME280;4966;48.112;9.282;2023-04-19T02:38:23;94982.50;;;9.64;82.02
9855;BME280;4966;48.112;9.282;2023-04-19T02:40:48;94994.66;;;9.49;83.46
9855;BME280;4966;48.112;9.282;2023-04-19T02:43:13;94989.56;;;9.48;83.47
9855;BME280;4966;48.112;9.282;2023-04-19T02:45:39;94980.03;;;9.24;84.51
9855;BME280;4966;48.112;9.282;2023-04-19T02:48:05;94982.25;;;9.40;83.46
9855;BME280;4966;48.112;9.282;2023-04-19T02:50:31;94980.50;;;9.35;83.45
9855;BME280;4966;48.112;9.282;2023-04-19T02:52:57;94977.84;;;9.65;82.37
9855;BME280;4966;48.112;9.282;2023-04-19T02:55:22;94977.50;;;9.75;81.37
9855;BME280;4966;48.112;9.282;2023-04-19T02:57:47;94981.72;;;9.55;82.44
9855;BME280;4966;48.112;9.282;2023-04-19T03:00:13;94976.13;;;9.60;82.57
9855;BME280;4966;48.112;9.282;2023-04-19T03:02:40;94968.47;;;9.53;82.58
9855;BME280;4966;48.112;9.282;2023-04-19T03:05:05;94966.91;;;9.35;83.34
9855;BME280;4966;48.112;9.282;2023-04-19T03:07:31;94969.53;;;9.05;84.98
9855;BME280;4966;48.112;9.282;2023-04-19T03:09:56;94965.50;;;9.20;85.04
9855;BME280;4966;48.112;9.282;2023-04-19T03:12:22;94964.97;;;9.44;83.38
9855;BME280;4966;48.112;9.282;2023-04-19T03:14:47;94958.44;;;9.36;83.64
9855;BME280;4966;48.112;9.282;2023-04-19T03:17:13;94960.81;;;9.38;84.02
9855;BME280;4966;48.112;9.282;2023-04-19T03:19:38;94958.50;;;9.02;84.86
9855;BME280;4966;48.112;9.282;2023-04-19T03:22:04;94968.56;;;9.10;85.57
9855;BME280;4966;48.112;9.282;2023-04-19T03:24:29;94960.16;;;9.58;82.80
9855;BME280;4966;48.112;9.282;2023-04-19T03:26:58;94970.28;;;9.79;81.07
9855;BME280;4966;48.112;9.282;2023-04-19T03:29:23;94952.38;;;9.31;83.20
9855;BME280;4966;48.112;9.282;2023-04-19T03:31:49;94952.72;;;9.29;84.24
9855;BME280;4966;48.112;9.282;2023-04-19T03:34:14;94949.09;;;8.99;85.46
9855;BME280;4966;48.112;9.282;2023-04-19T03:36:40;94950.44;;;9.40;84.16
9855;BME280;4966;48.112;9.282;2023-04-19T03:39:06;94946.41;;;9.55;82.63
9855;BME280;4966;48.112;9.282;2023-04-19T03:41:31;94948.38;;;9.37;83.16
9855;BME280;4966;48.112;9.282;2023-04-19T03:43:56;94951.22;;;9.49;82.81
9855;BME280;4966;48.112;9.282;2023-04-19T03:46:22;94948.78;;;9.65;81.82
9855;BME280;4966;48.112;9.282;2023-04-19T03:48:48;94950.28;;;9.45;82.76
9855;BME280;4966;48.112;9.282;2023-04-19T03:51:14;94945.34;;;9.39;83.12
9855;BME280;4966;48.112;9.282;2023-04-19T03:53:40;94940.78;;;9.69;81.62
9855;BME280;4966;48.112;9.282;2023-04-19T03:56:06;94942.88;;;8.99;85.18
9855;BME280;4966;48.112;9.282;2023-04-19T03:58:31;94944.09;;;9.27;84.78
9855;BME280;4966;48.112;9.282;2023-04-19T04:00:57;94939.94;;;9.21;84.65
9855;BME280;4966;48.112;9.282;2023-04-19T04:03:23;94950.72;;;9.56;82.96
9855;BME280;4966;48.112;9.282;2023-04-19T04:05:48;94945.66;;;9.37;84.24
9855;BME280;4966;48.112;9.282;2023-04-19T04:08:14;94946.38;;;9.64;81.93
9855;BME280;4966;48.112;9.282;2023-04-19T04:10:39;94939.06;;;9.55;82.92
9855;BME280;4966;48.112;9.282;2023-04-19T04:13:04;94942.28;;;9.49;82.55
9855;BME280;4966;48.112;9.282;2023-04-19T04:15:30;94948.69;;;9.44;82.98
9855;BME280;4966;48.112;9.282;2023-04-19T04:17:55;94948.97;;;9.51;82.41
9855;BME280;4966;48.112;9.282;2023-04-19T04:20:20;94946.19;;;9.77;81.15
9855;BME280;4966;48.112;9.282;2023-04-19T04:22:46;94953.09;;;9.66;81.10
9855;BME280;4966;48.112;9.282;2023-04-19T04:25:11;94947.78;;;9.14;84.08
9855;BME280;4966;48.112;9.282;2023-04-19T04:27:37;94956.16;;;9.56;82.28
9855;BME280;4966;48.112;9.282;2023-04-19T04:30:04;94949.19;;;9.37;82.67
9855;BME280;4966;48.112;9.282;2023-04-19T04:32:30;94954.72;;;9.50;82.33
9855;BME280;4966;48.112;9.282;2023-04-19T04:35:00;94943.88;;;9.50;81.84
9855;BME280;4966;48.112;9.282;2023-04-19T04:37:26;94947.03;;;9.61;81.89
9855;BME280;4966;48.112;9.282;2023-04-19T04:39:51;94950.56;;;9.52;81.41
9855;BME280;4966;48.112;9.282;2023-04-19T04:42:16;94941.78;;;9.55;81.56
9855;BME280;4966;48.112;9.282;2023-04-19T04:44:42;94947.00;;;9.22;82.79
9855;BME280;4966;48.112;9.282;2023-04-19T04:47:11;94952.84;;;9.42;82.63
9855;BME280;4966;48.112;9.282;2023-04-19T04:49:36;94952.81;;;9.89;79.94
9855;BME280;4966;48.112;9.282;2023-04-19T04:52:02;94954.91;;;9.45;81.82
9855;BME280;4966;48.112;9.282;2023-04-19T04:54:27;94959.91;;;9.81;80.35
9855;BME280;4966;48.112;9.282;2023-04-19T04:56:53;94957.50;;;9.41;81.67
9855;BME280;4966;48.112;9.282;2023-04-19T04:59:18;94960.03;;;9.29;83.66
9855;BME280;4966;48.112;9.282;2023-04-19T05:01:43;94945.72;;;9.75;81.14
9855;BME280;4966;48.112;9.282;2023-04-19T05:04:09;94960.03;;;9.37;82.36
9855;BME280;4966;48.112;9.282;2023-04-19T05:06:34;94959.13;;;9.72;81.04
9855;BME280;4966;48.112;9.282;2023-04-19T05:09:00;94963.00;;;9.62;81.35
9855;BME280;4966;48.112;9.282;2023-04-19T05:11:26;94956.19;;;9.47;82.83
9855;BME280;4966;48.112;9.282;2023-04-19T05:13:51;94960.50;;;9.48;82.18
9855;BME280;4966;48.112;9.282;2023-04-19T05:16:16;94961.00;;;9.33;82.19
9855;BME280;4966;48.112;9.282;2023-04-19T05:18:42;94964.66;;;9.46;82.06
9855;BME280;4966;48.112;9.282;2023-04-19T05:21:07;94960.19;;;9.41;81.90
9855;BME280;4966;48.112;9.282;2023-04-19T05:23:35;94957.59;;;9.53;81.77
9855;BME280;4966;48.112;9.282;2023-04-19T05:26:00;94962.66;;;9.72;81.06
9855;BME280;4966;48.112;9.282;2023-04-19T05:28:26;94953.94;;;9.96;79.50
9855;BME280;4966;48.112;9.282;2023-04-19T05:30:51;94956.88;;;10.12;78.55
9855;BME280;4966;48.112;9.282;2023-04-19T05:33:16;94957.13;;;9.60;80.15
9855;BME280;4966;48.112;9.282;2023-04-19T05:35:42;94964.25;;;9.65;80.18
9855;BME280;4966;48.112;9.282;2023-04-19T05:38:07;94959.78;;;8.96;83.12
9855;BME280;4966;48.112;9.282;2023-04-19T05:40:32;94960.22;;;9.32;82.57
9855;BME280;4966;48.112;9.282;2023-04-19T05:42:59;94962.75;;;9.29;82.41
9855;BME280;4966;48.112;9.282;2023-04-19T05:45:25;94965.00;;;9.35;82.17
9855;BME280;4966;48.112;9.282;2023-04-19T05:47:50;94960.00;;;9.93;79.29
9855;BME280;4966;48.112;9.282;2023-04-19T05:50:16;94965.03;;;9.74;80.11
9855;BME280;4966;48.112;9.282;2023-04-19T05:52:44;94969.97;;;9.80;79.48
9855;BME280;4966;48.112;9.282;2023-04-19T05:55:10;94967.38;;;9.37;80.96
9855;BME280;4966;48.112;9.282;2023-04-19T05:57:35;94966.56;;;9.54;81.44
9855;BME280;4966;48.112;9.282;2023-04-19T06:00:01;94965.81;;;9.83;79.07
9855;BME280;4966;48.112;9.282;2023-04-19T06:02:27;94966.16;;;9.73;79.48
9855;BME280;4966;48.112;9.282;2023-04-19T06:04:52;94965.63;;;9.88;78.28
9855;BME280;4966;48.112;9.282;2023-04-19T06:07:17;94969.38;;;9.75;79.85
9855;BME280;4966;48.112;9.282;2023-04-19T06:09:43;94973.53;;;10.11;78.59
9855;BME280;4966;48.112;9.282;2023-04-19T06:12:08;94971.53;;;9.90;78.71
9855;BME280;4966;48.112;9.282;2023-04-19T06:14:33;94976.00;;;9.95;78.46
9855;BME280;4966;48.112;9.282;2023-04-19T06:16:59;94972.97;;;9.88;78.62
9855;BME280;4966;48.112;9.282;2023-04-19T06:19:24;94976.28;;;10.02;78.66
9855;BME280;4966;48.112;9.282;2023-04-19T06:21:50;94975.59;;;10.14;78.22
9855;BME280;4966;48.112;9.282;2023-04-19T06:24:15;94973.47;;;9.81;78.92
9855;BME280;4966;48.112;9.282;2023-04-19T06:26:40;94975.81;;;10.00;78.41
9855;BME280;4966;48.112;9.282;2023-04-19T06:29:06;94979.38;;;9.92;78.81
9855;BME280;4966;48.112;9.282;2023-04-19T06:31:32;94979.38;;;9.92;79.08
9855;BME280;4966;48.112;9.282;2023-04-19T06:33:57;94979.38;;;10.30;77.88
9855;BME280;4966;48.112;9.282;2023-04-19T06:36:23;94979.38;;;9.83;78.25
9855;BME280;4966;48.112;9.282;2023-04-19T06:38:48;94983.19;;;9.91;78.85
9855;BME280;4966;48.112;9.282;2023-04-19T06:41:14;94978.13;;;10.19;77.72
9855;BME280;4966;48.112;9.282;2023-04-19T06:43:39;94980.19;;;9.84;80.08
9855;BME280;4966;48.112;9.282;2023-04-19T06:46:07;94983.34;;;10.33;77.37
9855;BME280;4966;48.112;9.282;2023-04-19T06:48:33;94974.78;;;10.13;78.25
9855;BME280;4966;48.112;9.282;2023-04-19T06:50:59;94979.53;;;10.25;77.55
9855;BME280;4966;48.112;9.282;2023-04-19T06:53:24;94983.78;;;10.05;78.89
9855;BME280;4966;48.112;9.282;2023-04-19T06:56:01;94992.19;;;9.74;80.55
9855;BME280;4966;48.112;9.282;2023-04-19T06:58:29;94983.63;;;9.54;80.95
9855;BME280;4966;48.112;9.282;2023-04-19T07:00:55;94983.00;;;9.96;79.44
9855;BME280;4966;48.112;9.282;2023-04-19T07:03:20;94988.09;;;9.59;81.79
9855;BME280;4966;48.112;9.282;2023-04-19T07:05:47;94985.69;;;9.57;81.55
9855;BME280;4966;48.112;9.282;2023-04-19T07:08:12;94991.94;;;9.58;81.55
9855;BME280;4966;48.112;9.282;2023-04-19T07:10:38;94982.16;;;9.66;81.03
9855;BME280;4966;48.112;9.282;2023-04-19T07:13:03;94984.59;;;9.58;81.93
9855;BME280;4966;48.112;9.282;2023-04-19T07:15:28;94986.28;;;9.80;79.99
9855;BME280;4966;48.112;9.282;2023-04-19T07:17:54;94984.41;;;9.64;81.37
9855;BME280;4966;48.112;9.282;2023-04-19T07:20:19;94982.09;;;9.83;80.38
9855;BME280;4966;48.112;9.282;2023-04-19T07:22:45;94976.53;;;9.79;80.63
9855;BME280;4966;48.112;9.282;2023-04-19T07:25:13;94981.59;;;9.90;80.29
9855;BME280;4966;48.112;9.282;2023-04-19T07:27:38;94982.94;;;10.13;78.31
9855;BME280;4966;48.112;9.282;2023-04-19T07:30:04;94983.28;;;9.65;79.36
9855;BME280;4966;48.112;9.282;2023-04-19T07:32:30;94979.16;;;10.06;78.48
9855;BME280;4966;48.112;9.282;2023-04-19T07:34:56;94979.50;;;9.95;79.35
9855;BME280;4966;48.112;9.282;2023-04-19T07:37:21;94979.06;;;10.23;77.36
9855;BME280;4966;48.112;9.282;2023-04-19T07:39:46;94980.53;;;10.12;78.32
9855;BME280;4966;48.112;9.282;2023-04-19T07:42:12;94979.84;;;10.53;76.56
9855;BME280;4966;48.112;9.282;2023-04-19T07:44:37;94977.25;;;10.36;77.00
9855;BME280;4966;48.112;9.282;2023-04-19T07:47:03;94974.53;;;10.36;76.88
9855;BME280;4966;48.112;9.282;2023-04-19T07:49:29;94975.22;;;10.75;76.09
9855;BME280;4966;48.112;9.282;2023-04-19T07:52:00;94976.47;;;10.27;76.67
9855;BME280;4966;48.112;9.282;2023-04-19T07:54:26;94973.13;;;10.30;77.65
9855;BME280;4966;48.112;9.282;2023-04-19T07:56:52;94983.03;;;10.26;76.93
9855;BME280;4966;48.112;9.282;2023-04-19T07:59:17;94974.81;;;10.43;76.60
9855;BME280;4966;48.112;9.282;2023-04-19T08:01:42;94970.97;;;10.86;74.98
9855;BME280;4966;48.112;9.282;2023-04-19T08:04:08;94969.38;;;11.06;73.72
9855;BME280;4966;48.112;9.282;2023-04-19T08:06:34;94966.81;;;10.89;74.24
9855;BME280;4966;48.112;9.282;2023-04-19T08:09:01;94972.25;;;11.10;73.75
9855;BME280;4966;48.112;9.282;2023-04-19T08:11:27;94971.38;;;10.76;74.61
9855;BME280;4966;48.112;9.282;2023-04-19T08:13:52;94972.03;;;10.94;73.21
9855;BME280;4966;48.112;9.282;2023-04-19T08:16:18;94971.59;;;11.25;72.44
9855;BME280;4966;48.112;9.282;2023-04-19T08:18:43;94972.03;;;10.94;73.55
9855;BME280;4966;48.112;9.282;2023-04-19T08:21:10;94962.03;;;10.85;73.52
9855;BME280;4966;48.112;9.282;2023-04-19T08:23:35;94957.78;;;10.76;73.89
9855;BME280;4966;48.112;9.282;2023-04-19T08:26:01;94963.69;;;10.78;73.18
9855;BME280;4966;48.112;9.282;2023-04-19T08:28:26;94967.47;;;11.06;73.73
9855;BME280;4966;48.112;9.282;2023-04-19T08:30:51;94960.81;;;11.16;71.93
9855;BME280;4966;48.112;9.282;2023-04-19T08:33:16;94969.28;;;10.31;75.14
9855;BME280;4966;48.112;9.282;2023-04-19T08:35:42;94972.63;;;10.57;74.54
9855;BME280;4966;48.112;9.282;2023-04-19T08:38:09;94967.00;;;10.83;73.17
9855;BME280;4966;48.112;9.282;2023-04-19T08:40:40;94962.75;;;10.95;73.66
9855;BME280;4966;48.112;9.282;2023-04-19T08:43:08;94961.19;;;11.06;72.75
9855;BME280;4966;48.112;9.282;2023-04-19T08:45:34;94960.16;;;10.77;73.25
9855;BME280;4966;48.112;9.282;2023-04-19T08:48:00;94967.31;;;10.82;73.94
9855;BME280;4966;48.112;9.282;2023-04-19T08:50:27;94962.75;;;10.53;73.72
9855;BME280;4966;48.112;9.282;2023-04-19T08:52:52;94957.16;;;10.70;73.53
9855;BME280;4966;48.112;9.282;2023-04-19T08:55:18;94949.47;;;11.14;72.21
9855;BME280;4966;48.112;9.282;2023-04-19T08:57:43;94952.28;;;11.18;72.36
9855;BME280;4966;48.112;9.282;2023-04-19T09:00:09;94942.63;;;11.08;71.98
9855;BME280;4966;48.112;9.282;2023-04-19T09:02:49;94956.84;;;11.14;71.87
9855;BME280;4966;48.112;9.282;2023-04-19T09:05:16;94954.63;;;11.86;70.17
9855;BME280;4966;48.112;9.282;2023-04-19T09:07:45;94954.84;;;11.81;68.25
9855;BME280;4966;48.112;9.282;2023-04-19T09:10:15;94950.78;;;11.99;68.55
9855;BME280;4966;48.112;9.282;2023-04-19T09:12:42;94948.53;;;12.13;67.98
9855;BME280;4966;48.112;9.282;2023-04-19T09:15:08;94957.22;;;11.70;68.90
9855;BME280;4966;48.112;9.282;2023-04-19T09:17:38;94944.41;;;11.83;68.79
9855;BME280;4966;48.112;9.282;2023-04-19T09:20:05;94946.34;;;12.44;66.78
9855;BME280;4966;48.112;9.282;2023-04-19T09:22:31;94943.72;;;12.60;65.16
9855;BME280;4966;48.112;9.282;2023-04-19T09:24:58;94933.00;;;12.79;64.80
9855;BME280;4966;48.112;9.282;2023-04-19T09:27:26;94936.06;;;12.77;64.89
9855;BME280;4966;48.112;9.282;2023-04-19T09:29:56;94928.00;;;12.69;64.33
9855;BME280;4966;48.112;9.282;2023-04-19T09:32:22;94936.56;;;12.55;64.72
9855;BME280;4966;48.112;9.282;2023-04-19T09:34:53;94927.56;;;12.67;64.73
9855;BME280;4966;48.112;9.282;2023-04-19T09:37:18;94929.56;;;12.82;64.43
9855;BME280;4966;48.112;9.282;2023-04-19T09:39:44;94923.56;;;13.33;62.98
9855;BME280;4966;48.112;9.282;2023-04-19T09:42:10;94920.66;;;13.70;62.10
9855;BME280;4966;48.112;9.282;2023-04-19T09:44:35;94918.97;;;13.65;59.50
9855;BME280;4966;48.112;9.282;2023-04-19T09:47:00;94911.75;;;13.89;59.00
9855;BME280;4966;48.112;9.282;2023-04-19T09:49:26;94911.16;;;14.46;58.45
9855;BME280;4966;48.112;9.282;2023-04-19T09:51:55;94912.91;;;14.55;57.87
9855;BME280;4966;48.112;9.282;2023-04-19T09:54:23;94908.72;;;14.25;59.23
9855;BME280;4966;48.112;9.282;2023-04-19T09:56:51;94902.69;;;14.36;57.85
9855;BME280;4966;48.112;9.282;2023-04-19T09:59:19;94898.94;;;14.60;56.81
9855;BME280;4966;48.112;9.282;2023-04-19T10:01:46;94906.97;;;13.86;56.78
9855;BME280;4966;48.112;9.282;2023-04-19T10:04:13;94901.94;;;14.03;57.93
9855;BME280;4966;48.112;9.282;2023-04-19T10:06:47;94894.25;;;13.93;58.19
9855;BME280;4966;48.112;9.282;2023-04-19T10:09:13;94891.25;;;14.50;57.92
9855;BME280;4966;48.112;9.282;2023-04-19T10:11:39;94894.06;;;14.53;56.81
9855;BME280;4966;48.112;9.282;2023-04-19T10:14:10;94888.59;;;15.08;55.04
9855;BME280;4966;48.112;9.282;2023-04-19T10:16:36;94888.16;;;15.25;54.41
9855;BME280;4966;48.112;9.282;2023-04-19T10:19:10;94887.47;;;15.51;52.35
9855;BME280;4966;48.112;9.282;2023-04-19T10:21:36;94876.84;;;15.50;53.93
9855;BME280;4966;48.112;9.282;2023-04-19T10:24:04;94879.63;;;15.53;52.42
9855;BME280;4966;48.112;9.282;2023-04-19T10:32:17;94886.81;;;15.39;53.01
9855;BME280;4966;48.112;9.282;2023-04-19T10:34:44;94880.84;;;15.33;52.75
9855;BME280;4966;48.112;9.282;2023-04-19T10:37:10;94874.25;;;14.76;54.40
9855;BME280;4966;48.112;9.282;2023-04-19T10:39:40;94874.47;;;14.86;53.45
9855;BME280;4966;48.112;9.282;2023-04-19T10:42:06;94873.22;;;15.03;52.83
9855;BME280;4966;48.112;9.282;2023-04-19T10:44:31;94874.94;;;14.18;55.60
9855;BME280;4966;48.112;9.282;2023-04-19T10:46:58;94872.13;;;14.34;54.83
9855;BME280;4966;48.112;9.282;2023-04-19T10:49:27;94864.03;;;14.73;54.53
9855;BME280;4966;48.112;9.282;2023-04-19T10:51:52;94871.50;;;14.40;55.97
9855;BME280;4966;48.112;9.282;2023-04-19T10:54:32;94862.94;;;14.07;56.41
9855;BME280;4966;48.112;9.282;2023-04-19T10:59:24;94849.03;;;13.32;58.75
9855;BME280;4966;48.112;9.282;2023-04-19T11:01:54;94850.28;;;13.51;58.77
9855;BME280;4966;48.112;9.282;2023-04-19T11:11:58;94831.22;;;14.57;55.63
9855;BME280;4966;48.112;9.282;2023-04-19T11:14:25;94833.41;;;15.29;53.85
9855;BME280;4966;48.112;9.282;2023-04-19T11:16:51;94831.75;;;15.47;54.59
9855;BME280;4966;48.112;9.282;2023-04-19T11:19:17;94824.59;;;16.12;51.27
9855;BME280;4966;48.112;9.282;2023-04-19T11:21:44;94819.88;;;16.39;50.71
9855;BME280;4966;48.112;9.282;2023-04-19T11:24:11;94820.88;;;17.62;47.91
9855;BME280;4966;48.112;9.282;2023-04-19T11:26:36;94813.34;;;21.24;39.69
9855;BME280;4966;48.112;9.282;2023-04-19T11:29:02;94800.88;;;22.59;36.86
9855;BME280;4966;48.112;9.282;2023-04-19T11:31:28;94797.50;;;24.41;32.53
9855;BME280;4966;48.112;9.282;2023-04-19T11:33:57;94788.47;;;23.32;33.41
9855;BME280;4966;48.112;9.282;2023-04-19T11:36:23;94780.38;;;24.66;31.97
9855;BME280;4966;48.112;9.282;2023-04-19T11:38:48;94781.25;;;25.03;31.28
9855;BME280;4966;48.112;9.282;2023-04-19T11:41:14;94774.53;;;24.60;32.58
9855;BME280;4966;48.112;9.282;2023-04-19T11:43:40;94772.25;;;23.85;32.76
9855;BME280;4966;48.112;9.282;2023-04-19T11:46:10;94767.97;;;22.61;34.15
9855;BME280;4966;48.112;9.282;2023-04-19T11:48:36;94772.22;;;22.35;34.93
9855;BME280;4966;48.112;9.282;2023-04-19T11:51:02;94758.03;;;22.25;35.73
9855;BME280;4966;48.112;9.282;2023-04-19T11:53:30;94761.72;;;22.53;34.75
9855;BME280;4966;48.112;9.282;2023-04-19T11:56:06;94760.81;;;20.11;38.77
9855;BME280;4966;48.112;9.282;2023-04-19T11:58:40;94761.28;;;18.40;41.74
9855;BME280;4966;48.112;9.282;2023-04-19T12:01:12;94754.09;;;18.21;41.49
9855;BME280;4966;48.112;9.282;2023-04-19T12:03:48;94758.34;;;16.77;46.15
9855;BME280;4966;48.112;9.282;2023-04-19T12:06:24;94759.34;;;16.28;47.58
9855;BME280;4966;48.112;9.282;2023-04-19T12:08:50;94753.25;;;16.12;48.09
9855;BME280;4966;48.112;9.282;2023-04-19T12:11:21;94753.19;;;15.32;49.41
9855;BME280;4966;48.112;9.282;2023-04-19T12:13:48;94751.66;;;15.12;49.78
9855;BME280;4966;48.112;9.282;2023-04-19T12:16:13;94754.94;;;14.98;50.54
9855;BME280;4966;48.112;9.282;2023-04-19T12:18:49;94750.44;;;14.86;50.80
9855;BME280;4966;48.112;9.282;2023-04-19T12:21:28;94739.13;;;14.87;51.73
9855;BME280;4966;48.112;9.282;2023-04-19T12:23:59;94747.53;;;15.44;50.63
9855;BME280;4966;48.112;9.282;2023-04-19T12:26:27;94729.78;;;15.38;50.12
9855;BME280;4966;48.112;9.282;2023-04-19T12:28:53;94742.28;;;15.36;50.19
9855;BME280;4966;48.112;9.282;2023-04-19T12:31:19;94734.75;;;15.56;49.80
9855;BME280;4966;48.112;9.282;2023-04-19T12:33:45;94732.09;;;15.59;49.16
9855;BME280;4966;48.112;9.282;2023-04-19T12:36:10;94730.47;;;15.81;48.41
9855;BME280;4966;48.112;9.282;2023-04-19T12:38:36;94724.00;;;15.97;48.51
9855;BME280;4966;48.112;9.282;2023-04-19T12:41:01;94714.00;;;16.42;46.60
9855;BME280;4966;48.112;9.282;2023-04-19T12:43:27;94722.94;;;16.69;46.62
9855;BME280;4966;48.112;9.282;2023-04-19T12:45:54;94720.34;;;16.46;46.07
9855;BME280;4966;48.112;9.282;2023-04-19T12:48:19;94712.19;;;16.56;43.35
9855;BME280;4966;48.112;9.282;2023-04-19T12:50:45;94707.25;;;16.69;42.53
9855;BME280;4966;48.112;9.282;2023-04-19T12:53:10;94707.47;;;16.87;44.46
9855;BME280;4966;48.112;9.282;2023-04-19T12:55:36;94706.38;;;16.62;44.52
9855;BME280;4966;48.112;9.282;2023-04-19T12:58:01;94710.25;;;15.93;46.26
9855;BME280;4966;48.112;9.282;2023-04-19T13:00:26;94704.19;;;16.41;47.27
9855;BME280;4966;48.112;9.282;2023-04-19T13:02:52;94710.94;;;15.86;48.47
9855;BME280;4966;48.112;9.282;2023-04-19T13:05:18;94708.72;;;15.42;47.37
9855;BME280;4966;48.112;9.282;2023-04-19T13:07:43;94714.91;;;15.39;47.53
9855;BME280;4966;48.112;9.282;2023-04-19T13:10:09;94710.06;;;15.29;47.82
9855;BME280;4966;48.112;9.282;2023-04-19T13:12:35;94706.03;;;14.77;50.67
9855;BME280;4966;48.112;9.282;2023-04-19T13:15:00;94703.63;;;14.52;52.14
9855;BME280;4966;48.112;9.282;2023-04-19T13:17:26;94701.38;;;13.45;54.30
9855;BME280;4966;48.112;9.282;2023-04-19T13:19:51;94695.84;;;13.25;54.35
9855;BME280;4966;48.112;9.282;2023-04-19T13:22:17;94700.50;;;13.40;54.81
9855;BME280;4966;48.112;9.282;2023-04-19T13:24:42;94695.03;;;13.40;55.18
9855;BME280;4966;48.112;9.282;2023-04-19T13:27:08;94695.59;;;13.30;56.47
9855;BME280;4966;48.112;9.282;2023-04-19T13:29:33;94692.47;;;12.68;57.32
9855;BME280;4966;48.112;9.282;2023-04-19T13:31:58;94692.84;;;12.98;56.22
9855;BME280;4966;48.112;9.282;2023-04-19T13:34:24;94684.88;;;13.57;55.58
9855;BME280;4966;48.112;9.282;2023-04-19T13:36:50;94685.78;;;13.45;56.29